MTZ weather

Bar Yehuda Airfield
Masada, Southern District, Israel

Public forecast

Using degrees Celsius for public forecast. Weather courtesy of forecast.io.

METAR (pilot weather report)

Closest report is Queen Alia International Airport, 39.0 nm (72.2 km) NE. Retrieved 2019/04/23 15:00 UTC (30 minutes ago):

OJAI 231500Z 30009KT 6000 FEW035 17/06 Q1023 NOSIG

TAF (pilot weather forecast)

Closest forecast is Queen Alia International Airport, 39.0 nm (72.2 km) NE. Retrieved 2019/04/23 12:15 UTC (3 hours ago):

TAF TAF OJAI 231100Z 2312/2418 30008KT 7000 NSC TEMPO 2402/2406 VRB01KT 4000 HZ BECMG 2406/2408 11008KT